Time;durP1;ratioP1;P1;durP2;ratioP2;P2;SDS_P1;SDS_P2;PMS_P1;PMS_P2;Temp;Humidity;BMP_temperature;BMP_pressure;BME280_temperature;BME280_humidity;BME280_pressure;Samples;Min_cycle;Max_cycle;Signal;HPM_P1;HPM_P2
2022/10/24 00:00:09;;;;;;;10.77;5.53;;;;;;;;;;2115252;28;20047;-45
2022/10/24 00:01:10;;;;;;;8.85;5.55;;;;;;;;;;2115241;28;20104;-45
2022/10/24 00:02:12;;;;;;;8.02;5.00;;;;;;;;;;2115278;28;20047;-45
2022/10/24 00:03:13;;;;;;;10.18;5.07;;;;;;;;;;2115166;28;20100;-44
2022/10/24 00:04:14;;;;;;;10.55;5.80;;;;;;;;;;2115104;28;20058;-45
2022/10/24 00:05:15;;;;;;;10.25;6.00;;;;;;;;;;2114828;28;20048;-46
2022/10/24 00:06:17;;;;;;;11.52;5.50;;;;;;;;;;2115532;28;20051;-45
2022/10/24 00:07:18;;;;;;;8.93;4.97;;;;;;;;;;2115110;28;20488;-46
2022/10/24 00:08:19;;;;;;;11.37;5.73;;;;;;;;;;2115051;28;20048;-45
2022/10/24 00:09:20;;;;;;;8.07;5.10;;;;;;;;;;2115221;28;20055;-45
2022/10/24 00:10:21;;;;;;;9.40;5.50;;;;;;;;;;2115133;28;20044;-45
2022/10/24 00:11:23;;;;;;;9.52;5.43;;;;;;;;;;2115232;28;20446;-47
2022/10/24 00:12:24;;;;;;;8.93;4.85;;;;;;;;;;2115107;28;20050;-44
2022/10/24 00:13:25;;;;;;;7.90;5.03;;;;;;;;;;2115513;28;20051;-44
2022/10/24 00:14:26;;;;;;;8.10;4.93;;;;;;;;;;2115436;28;20047;-44
2022/10/24 00:15:27;;;;;;;9.57;5.07;;;;;;;;;;2115195;28;20047;-44
2022/10/24 00:16:29;;;;;;;9.70;5.53;;;;;;;;;;2115328;28;20051;-44
2022/10/24 00:17:30;;;;;;;9.15;5.00;;;;;;;;;;2115400;28;20047;-48
2022/10/24 00:18:31;;;;;;;8.55;5.28;;;;;;;;;;2115196;28;20073;-44
2022/10/24 00:19:32;;;;;;;9.00;5.47;;;;;;;;;;2115263;28;20040;-46
2022/10/24 00:20:35;;;;;;;10.00;5.87;;;;;;;;;;2115286;28;20529;-45
2022/10/24 00:21:38;;;;;;;9.13;5.55;;;;;;;;;;2115112;28;20123;-45
2022/10/24 00:22:39;;;;;;;12.00;5.85;;;;;;;;;;2114822;28;20492;-45
2022/10/24 00:23:40;;;;;;;9.02;5.13;;;;;;;;;;2115140;28;20048;-45
2022/10/24 00:24:41;;;;;;;9.60;5.90;;;;;;;;;;2115110;28;20130;-45
2022/10/24 00:25:42;;;;;;;9.82;5.97;;;;;;;;;;2115049;28;20399;-46
2022/10/24 00:26:43;;;;;;;11.63;5.20;;;;;;;;;;2115230;28;20050;-45
2022/10/24 00:27:44;;;;;;;10.95;5.80;;;;;;;;;;2114919;28;20511;-45
2022/10/24 00:28:45;;;;;;;9.67;4.67;;;;;;;;;;2115172;28;20126;-46
2022/10/24 00:29:46;;;;;;;7.07;4.93;;;;;;;;;;2115139;28;20055;-46
2022/10/24 00:30:49;;;;;;;12.40;5.23;;;;;;;;;;2115201;28;20469;-46
2022/10/24 00:31:50;;;;;;;9.60;4.60;;;;;;;;;;2115045;28;20043;-45
2022/10/24 00:32:52;;;;;;;7.53;4.87;;;;;;;;;;2115004;28;20097;-45
2022/10/24 00:33:55;;;;;;;9.65;4.82;;;;;;;;;;2115129;28;20473;-44
2022/10/24 00:34:56;;;;;;;9.30;4.57;;;;;;;;;;2115204;28;20051;-44
2022/10/24 00:35:58;;;;;;;8.00;4.95;;;;;;;;;;2115160;28;20054;-43
2022/10/24 00:36:59;;;;;;;9.13;4.90;;;;;;;;;;2115110;28;20101;-43
2022/10/24 00:38:00;;;;;;;10.73;4.88;;;;;;;;;;2115135;28;20048;-44
2022/10/24 00:39:01;;;;;;;8.07;4.33;;;;;;;;;;2115275;28;20075;-45
2022/10/24 00:40:04;;;;;;;7.40;4.13;;;;;;;;;;2115110;28;20044;-46
2022/10/24 00:41:05;;;;;;;8.43;4.88;;;;;;;;;;2114981;28;20052;-48
2022/10/24 00:42:06;;;;;;;7.75;4.68;;;;;;;;;;2114905;28;20054;-46
2022/10/24 00:43:12;;;;;;;8.03;4.73;;;;;;;;;;2115089;28;20396;-45
2022/10/24 00:44:19;;;;;;;6.97;4.47;;;;;;;;;;2115122;28;20047;-45
2022/10/24 00:45:41;;;;;;;6.13;3.97;;;;;;;;;;2115188;28;20512;-45
2022/10/24 00:46:44;;;;;;;7.57;4.65;;;;;;;;;;2115073;28;20043;-46
2022/10/24 00:47:45;;;;;;;7.40;4.63;;;;;;;;;;2114872;28;20491;-45
2022/10/24 00:48:49;;;;;;;9.32;4.97;;;;;;;;;;2115196;28;20043;-44
2022/10/24 00:49:51;;;;;;;7.35;4.30;;;;;;;;;;2114855;28;20074;-46
2022/10/24 00:50:54;;;;;;;8.85;4.60;;;;;;;;;;2114852;28;20404;-46
2022/10/24 00:51:58;;;;;;;7.25;4.22;;;;;;;;;;2114934;28;20055;-45
2022/10/24 00:52:58;;;;;;;12.32;4.53;;;;;;;;;;2114830;28;20047;-46
2022/10/24 00:54:02;;;;;;;8.40;4.67;;;;;;;;;;2114943;28;20047;-45
2022/10/24 00:55:04;;;;;;;7.85;4.90;;;;;;;;;;2114855;28;20074;-45
2022/10/24 00:56:06;;;;;;;7.70;4.88;;;;;;;;;;2114991;28;20052;-45
2022/10/24 00:57:09;;;;;;;9.32;4.85;;;;;;;;;;2114855;28;20063;-46
2022/10/24 00:58:10;;;;;;;6.25;4.53;;;;;;;;;;2114851;28;20070;-45
2022/10/24 00:59:11;;;;;;;10.20;5.05;;;;;;;;;;2114897;28;20400;-44
2022/10/24 01:00:14;;;;;;;8.20;5.03;;;;;;;;;;2114957;28;20047;-45
2022/10/24 01:01:15;;;;;;;6.07;4.03;;;;;;;;;;2114780;28;20051;-44
2022/10/24 01:02:16;;;;;;;9.55;5.13;;;;;;;;;;2115043;28;20510;-45
2022/10/24 01:03:17;;;;;;;10.05;4.93;;;;;;;;;;2114747;28;20400;-47
2022/10/24 01:04:19;;;;;;;10.00;5.73;;;;;;;;;;2114536;28;20067;-45
2022/10/24 01:05:21;;;;;;;9.32;4.90;;;;;;;;;;2114791;28;20062;-45
2022/10/24 01:06:28;;;;;;;10.48;5.70;;;;;;;;;;2115061;28;20047;-43
2022/10/24 01:07:52;;;;;;;10.45;4.82;;;;;;;;;;2114727;28;20052;-43
2022/10/24 01:08:57;;;;;;;9.30;5.05;;;;;;;;;;2114836;28;20144;-43
2022/10/24 01:10:16;;;;;;;11.63;5.80;;;;;;;;;;2114903;28;20100;-43
2022/10/24 01:11:25;;;;;;;8.10;5.00;;;;;;;;;;2114711;28;20489;-43
2022/10/24 01:12:31;;;;;;;9.68;5.63;;;;;;;;;;2115044;28;20101;-47
2022/10/24 01:13:37;;;;;;;9.63;5.40;;;;;;;;;;2114853;28;20040;-45
2022/10/24 01:14:44;;;;;;;9.15;5.80;;;;;;;;;;2114944;28;20047;-45
2022/10/24 01:15:48;;;;;;;12.85;6.05;;;;;;;;;;2115153;28;20040;-44
2022/10/24 01:16:50;;;;;;;9.68;5.30;;;;;;;;;;2113736;28;20047;-43
2022/10/24 01:17:55;;;;;;;9.77;4.93;;;;;;;;;;2114707;28;20096;-44
2022/10/24 01:19:00;;;;;;;10.55;5.78;;;;;;;;;;2114969;28;20059;-44
2022/10/24 01:20:31;;;;;;;10.73;5.97;;;;;;;;;;2114680;28;20488;-45
2022/10/24 01:21:34;;;;;;;11.68;4.88;;;;;;;;;;2072296;28;20138;-46
2022/10/24 01:22:40;;;;;;;8.15;4.75;;;;;;;;;;2072129;28;20038;-49
2022/10/24 01:23:51;;;;;;;12.88;5.47;;;;;;;;;;2077815;28;20507;-46
2022/10/24 01:25:02;;;;;;;14.32;5.95;;;;;;;;;;2114736;28;20059;-47
2022/10/24 01:26:13;;;;;;;12.32;5.80;;;;;;;;;;2114782;28;20054;-45
2022/10/24 01:27:26;;;;;;;10.50;6.03;;;;;;;;;;2114773;28;20047;-46
2022/10/24 01:28:29;;;;;;;10.98;5.35;;;;;;;;;;2114630;28;20570;-47
2022/10/24 01:29:39;;;;;;;10.75;5.50;;;;;;;;;;2114978;28;20047;-45
2022/10/24 01:30:42;;;;;;;11.27;5.72;;;;;;;;;;2114642;28;20044;-45
2022/10/24 01:31:46;;;;;;;13.05;5.65;;;;;;;;;;2114756;28;20043;-45
2022/10/24 01:32:55;;;;;;;10.25;5.45;;;;;;;;;;2114678;28;20047;-45
2022/10/24 01:33:58;;;;;;;11.02;6.10;;;;;;;;;;2114627;28;20431;-45
2022/10/24 01:35:01;;;;;;;8.93;5.45;;;;;;;;;;2114529;28;20048;-44
2022/10/24 01:36:04;;;;;;;11.70;5.70;;;;;;;;;;2114748;28;20104;-45
2022/10/24 01:37:06;;;;;;;8.25;5.22;;;;;;;;;;2114531;28;20055;-45
2022/10/24 01:38:12;;;;;;;12.35;6.65;;;;;;;;;;2114557;28;20092;-45
2022/10/24 01:39:16;;;;;;;11.65;6.03;;;;;;;;;;2114802;28;20059;-45
2022/10/24 01:40:19;;;;;;;11.05;5.43;;;;;;;;;;2114818;28;20066;-43
2022/10/24 01:41:22;;;;;;;9.90;6.10;;;;;;;;;;2114694;28;20051;-43
2022/10/24 01:42:25;;;;;;;9.80;5.72;;;;;;;;;;2114418;28;20433;-43
2022/10/24 01:43:27;;;;;;;9.30;5.78;;;;;;;;;;2114577;28;20052;-43
2022/10/24 01:44:30;;;;;;;14.75;5.85;;;;;;;;;;2114738;28;20047;-43
2022/10/24 01:45:33;;;;;;;10.80;5.80;;;;;;;;;;2114662;28;20054;-43
2022/10/24 01:46:36;;;;;;;14.98;5.47;;;;;;;;;;2114595;28;20043;-43
2022/10/24 01:47:39;;;;;;;12.80;5.43;;;;;;;;;;2114406;28;20043;-43
2022/10/24 01:48:43;;;;;;;11.15;6.00;;;;;;;;;;2114622;28;20060;-43
2022/10/24 01:49:47;;;;;;;18.23;6.20;;;;;;;;;;2114649;28;20044;-43
2022/10/24 01:50:50;;;;;;;9.25;5.85;;;;;;;;;;2114632;28;20100;-43
2022/10/24 01:51:52;;;;;;;12.68;6.10;;;;;;;;;;2114590;28;20497;-43
2022/10/24 01:52:54;;;;;;;10.88;6.20;;;;;;;;;;2114513;28;20408;-43
2022/10/24 01:53:56;;;;;;;16.20;6.07;;;;;;;;;;2114734;28;20051;-43
2022/10/24 01:54:56;;;;;;;13.05;6.50;;;;;;;;;;2114658;28;20149;-45
2022/10/24 01:55:58;;;;;;;14.80;6.17;;;;;;;;;;2114496;28;20511;-44
2022/10/24 01:57:00;;;;;;;10.77;6.25;;;;;;;;;;2114362;28;20054;-44
2022/10/24 01:58:01;;;;;;;13.35;5.53;;;;;;;;;;2114470;28;20499;-46
2022/10/24 01:59:06;;;;;;;17.65;6.65;;;;;;;;;;2114440;28;20542;-45
2022/10/24 02:00:08;;;;;;;12.07;6.70;;;;;;;;;;2114710;28;20048;-43
2022/10/24 02:01:13;;;;;;;12.20;6.30;;;;;;;;;;2114309;28;20043;-43
2022/10/24 02:02:16;;;;;;;10.90;6.10;;;;;;;;;;2114474;28;20054;-43
2022/10/24 02:03:21;;;;;;;12.60;6.45;;;;;;;;;;2114396;28;20537;-43
2022/10/24 02:04:22;;;;;;;11.52;6.38;;;;;;;;;;2114424;28;20389;-43
2022/10/24 02:05:25;;;;;;;12.30;5.15;;;;;;;;;;2114561;28;20044;-43
2022/10/24 02:06:28;;;;;;;13.90;6.60;;;;;;;;;;2114443;28;20496;-43
2022/10/24 02:07:31;;;;;;;10.77;6.20;;;;;;;;;;2114350;28;20051;-43
2022/10/24 02:08:34;;;;;;;10.98;5.57;;;;;;;;;;2114504;28;20039;-43
2022/10/24 02:09:37;;;;;;;13.00;6.25;;;;;;;;;;2114352;28;20043;-43
2022/10/24 02:10:41;;;;;;;13.65;6.05;;;;;;;;;;2114717;28;20120;-43
2022/10/24 02:11:43;;;;;;;10.77;6.10;;;;;;;;;;2114591;28;20043;-43
2022/10/24 02:12:46;;;;;;;12.65;6.70;;;;;;;;;;2114457;28;20039;-43
2022/10/24 02:13:51;;;;;;;13.10;6.68;;;;;;;;;;2114242;28;20047;-43
2022/10/24 02:14:54;;;;;;;11.13;6.32;;;;;;;;;;2114987;28;20055;-43
2022/10/24 02:15:57;;;;;;;15.02;7.30;;;;;;;;;;2114319;28;20503;-43
2022/10/24 02:16:59;;;;;;;11.02;5.50;;;;;;;;;;2114306;28;20446;-43
2022/10/24 02:18:01;;;;;;;11.98;5.90;;;;;;;;;;2114425;28;20066;-43
2022/10/24 02:19:02;;;;;;;12.00;6.95;;;;;;;;;;2114405;28;20047;-43
2022/10/24 02:20:03;;;;;;;14.40;6.28;;;;;;;;;;2114411;28;20047;-43
2022/10/24 02:21:14;;;;;;;8.93;5.95;;;;;;;;;;2114374;28;20047;-43
2022/10/24 02:22:20;;;;;;;13.73;6.05;;;;;;;;;;2114391;28;20206;-43
2022/10/24 02:23:25;;;;;;;9.98;5.53;;;;;;;;;;2114417;28;20047;-43
2022/10/24 02:24:27;;;;;;;12.70;6.53;;;;;;;;;;2114455;28;20104;-43
2022/10/24 02:25:32;;;;;;;12.75;6.25;;;;;;;;;;2114501;28;20044;-43
2022/10/24 02:26:35;;;;;;;11.77;6.53;;;;;;;;;;2114235;28;20428;-43
2022/10/24 02:27:38;;;;;;;11.38;6.18;;;;;;;;;;2113961;28;20537;-43
2022/10/24 02:28:41;;;;;;;14.70;7.07;;;;;;;;;;2114259;28;20559;-43
2022/10/24 02:29:44;;;;;;;13.15;6.88;;;;;;;;;;2114242;28;20039;-43
2022/10/24 02:30:47;;;;;;;10.30;6.50;;;;;;;;;;2114280;28;20043;-43
2022/10/24 02:31:53;;;;;;;12.18;6.68;;;;;;;;;;2114300;28;20036;-43
2022/10/24 02:32:56;;;;;;;13.27;6.65;;;;;;;;;;2114383;28;20055;-43
2022/10/24 02:33:59;;;;;;;11.00;6.60;;;;;;;;;;2114263;28;20036;-43
2022/10/24 02:35:00;;;;;;;13.63;7.40;;;;;;;;;;2114215;28;20089;-43
2022/10/24 02:36:02;;;;;;;11.75;6.70;;;;;;;;;;2114471;28;20047;-43
2022/10/24 02:37:04;;;;;;;12.82;6.72;;;;;;;;;;2114501;28;20055;-43
2022/10/24 02:38:09;;;;;;;11.30;6.55;;;;;;;;;;2114130;28;20404;-43
2022/10/24 02:39:10;;;;;;;11.18;6.93;;;;;;;;;;2114400;28;20191;-43
2022/10/24 02:40:14;;;;;;;16.08;6.57;;;;;;;;;;2114237;28;20488;-43
2022/10/24 02:41:18;;;;;;;12.93;7.18;;;;;;;;;;2114409;28;20043;-44
2022/10/24 02:42:20;;;;;;;12.65;6.90;;;;;;;;;;2109409;28;20385;-45
2022/10/24 02:43:20;;;;;;;;;;;;;;;;;;2106192;28;20043;-45
2022/10/24 02:44:23;;;;;;;13.80;7.20;;;;;;;;;;2105671;28;20012;-44
2022/10/24 02:45:24;;;;;;;15.68;8.02;;;;;;;;;;2105791;28;20048;-45
2022/10/24 02:46:26;;;;;;;17.25;7.45;;;;;;;;;;2105976;28;20048;-45
2022/10/24 02:47:28;;;;;;;13.38;6.72;;;;;;;;;;2105940;28;20301;-45
2022/10/24 02:48:33;;;;;;;18.05;7.45;;;;;;;;;;2105917;28;20048;-44
2022/10/24 02:49:34;;;;;;;17.85;7.25;;;;;;;;;;2105799;28;20044;-46
2022/10/24 02:50:37;;;;;;;14.77;6.57;;;;;;;;;;2105776;28;20047;-45
2022/10/24 02:51:40;;;;;;;17.58;7.60;;;;;;;;;;2105844;28;20063;-45
2022/10/24 02:52:42;;;;;;;15.27;7.22;;;;;;;;;;2105800;28;20051;-45
2022/10/24 02:53:43;;;;;;;14.52;7.10;;;;;;;;;;2105638;28;20048;-45
2022/10/24 02:54:44;;;;;;;13.77;6.30;;;;;;;;;;2105732;28;20044;-45
2022/10/24 02:55:45;;;;;;;14.05;7.00;;;;;;;;;;2105995;28;20048;-47
2022/10/24 02:56:49;;;;;;;13.43;8.05;;;;;;;;;;2105720;28;20496;-45
2022/10/24 02:57:50;;;;;;;16.05;7.60;;;;;;;;;;2106055;28;20063;-46
2022/10/24 02:58:51;;;;;;;14.07;6.35;;;;;;;;;;2105687;28;20047;-44
2022/10/24 02:59:52;;;;;;;18.52;8.15;;;;;;;;;;2105736;28;20147;-45
2022/10/24 03:00:53;;;;;;;11.10;6.40;;;;;;;;;;2105708;28;20448;-47
2022/10/24 03:01:54;;;;;;;12.23;7.00;;;;;;;;;;2105682;28;20075;-45
2022/10/24 03:02:55;;;;;;;11.23;6.95;;;;;;;;;;2105849;28;20052;-45
2022/10/24 03:03:57;;;;;;;15.77;6.90;;;;;;;;;;2105666;28;20048;-45
2022/10/24 03:04:58;;;;;;;12.52;7.07;;;;;;;;;;2105794;28;20094;-45
2022/10/24 03:06:00;;;;;;;17.17;7.53;;;;;;;;;;2105845;28;20048;-45
2022/10/24 03:07:00;;;;;;;13.18;7.20;;;;;;;;;;2105755;28;20067;-45
2022/10/24 03:08:02;;;;;;;16.20;7.53;;;;;;;;;;2105937;28;20524;-46
2022/10/24 03:09:02;;;;;;;15.52;8.13;;;;;;;;;;2105832;28;20048;-44
2022/10/24 03:10:04;;;;;;;18.43;7.60;;;;;;;;;;2105746;28;20048;-46
2022/10/24 03:11:05;;;;;;;13.90;7.75;;;;;;;;;;2105851;28;20052;-45
2022/10/24 03:12:06;;;;;;;17.90;7.87;;;;;;;;;;2105591;28;20193;-45
2022/10/24 03:13:07;;;;;;;13.18;6.78;;;;;;;;;;2105713;28;20056;-45
2022/10/24 03:14:08;;;;;;;16.10;7.83;;;;;;;;;;2105779;28;20047;-45
2022/10/24 03:15:10;;;;;;;17.52;8.18;;;;;;;;;;2105788;28;20044;-44
2022/10/24 03:16:11;;;;;;;13.38;8.00;;;;;;;;;;2105699;28;20055;-46
2022/10/24 03:17:14;;;;;;;16.83;7.68;;;;;;;;;;2105683;28;20044;-45
2022/10/24 03:18:15;;;;;;;13.93;7.77;;;;;;;;;;2105695;28;20048;-45
2022/10/24 03:19:17;;;;;;;18.52;8.30;;;;;;;;;;2105616;28;20396;-45
2022/10/24 03:20:18;;;;;;;16.00;7.85;;;;;;;;;;2105899;28;20055;-46
2022/10/24 03:21:19;;;;;;;17.33;8.48;;;;;;;;;;2105643;28;20055;-46
2022/10/24 03:22:20;;;;;;;14.18;7.88;;;;;;;;;;2105774;28;20147;-43
2022/10/24 03:23:21;;;;;;;20.10;8.88;;;;;;;;;;2105552;28;20485;-43
2022/10/24 03:24:22;;;;;;;14.98;7.78;;;;;;;;;;2105666;28;20102;-43
2022/10/24 03:25:43;;;;;;;21.60;9.13;;;;;;;;;;2105832;28;20040;-43
2022/10/24 03:26:44;;;;;;;21.77;8.63;;;;;;;;;;2105695;28;20040;-43
2022/10/24 03:27:45;;;;;;;19.60;8.82;;;;;;;;;;2105451;28;20493;-43
2022/10/24 03:28:47;;;;;;;19.85;7.85;;;;;;;;;;2105605;28;20501;-43
2022/10/24 03:29:48;;;;;;;17.02;8.13;;;;;;;;;;2105657;28;20048;-43
2022/10/24 03:30:49;;;;;;;18.47;7.77;;;;;;;;;;2105788;28;20048;-43
2022/10/24 03:31:50;;;;;;;17.45;8.50;;;;;;;;;;2105611;28;20052;-43
2022/10/24 03:32:51;;;;;;;18.30;7.95;;;;;;;;;;2105541;28;20046;-43
2022/10/24 03:33:52;;;;;;;18.88;7.70;;;;;;;;;;2105675;28;20052;-43
2022/10/24 03:34:54;;;;;;;20.23;7.85;;;;;;;;;;2105525;28;20040;-43
2022/10/24 03:35:55;;;;;;;16.77;7.82;;;;;;;;;;2105600;28;20056;-43
2022/10/24 03:36:56;;;;;;;17.80;7.80;;;;;;;;;;2105713;28;20408;-43
2022/10/24 03:37:57;;;;;;;14.57;7.57;;;;;;;;;;2105669;28;20289;-43
2022/10/24 03:38:58;;;;;;;17.07;8.00;;;;;;;;;;2105654;28;20055;-43
2022/10/24 03:39:59;;;;;;;18.35;8.38;;;;;;;;;;2106321;28;20055;-43
2022/10/24 03:41:00;;;;;;;15.17;8.23;;;;;;;;;;2106977;28;20468;-42
2022/10/24 03:42:01;;;;;;;17.75;8.70;;;;;;;;;;2108720;28;20142;-42
2022/10/24 03:43:02;;;;;;;16.27;8.43;;;;;;;;;;2115401;28;20051;-42
2022/10/24 03:44:03;;;;;;;16.63;8.38;;;;;;;;;;2115231;28;20462;-42
2022/10/24 03:45:04;;;;;;;19.73;8.50;;;;;;;;;;2115560;28;20044;-42
2022/10/24 03:46:05;;;;;;;16.50;7.78;;;;;;;;;;2115350;28;20537;-42
2022/10/24 03:47:06;;;;;;;15.63;8.23;;;;;;;;;;2115424;28;20055;-42
2022/10/24 03:48:07;;;;;;;20.08;8.30;;;;;;;;;;2115423;28;20043;-42
2022/10/24 03:49:09;;;;;;;17.23;9.10;;;;;;;;;;2115378;28;20533;-42
2022/10/24 03:50:10;;;;;;;15.70;7.78;;;;;;;;;;2115411;28;20047;-42
2022/10/24 03:51:11;;;;;;;;;;;;;;;;;;2115906;28;20092;-42
2022/10/24 03:52:12;;;;;;;16.33;7.97;;;;;;;;;;2115345;28;20381;-43
2022/10/24 03:53:14;;;;;;;15.40;7.97;;;;;;;;;;2115230;28;20050;-45
2022/10/24 03:54:15;;;;;;;11.57;6.97;;;;;;;;;;2115481;28;20046;-45
2022/10/24 03:55:16;;;;;;;15.20;7.93;;;;;;;;;;2115347;28;20407;-45
2022/10/24 03:56:17;;;;;;;17.20;8.32;;;;;;;;;;2115281;28;20077;-45
2022/10/24 03:57:18;;;;;;;12.68;7.15;;;;;;;;;;2115318;28;20077;-45
2022/10/24 03:58:19;;;;;;;17.38;8.18;;;;;;;;;;2115412;28;20047;-45
2022/10/24 03:59:20;;;;;;;13.57;8.40;;;;;;;;;;2115348;28;20052;-45
2022/10/24 04:00:21;;;;;;;16.55;8.43;;;;;;;;;;2115229;28;20415;-45
2022/10/24 04:01:23;;;;;;;19.30;8.30;;;;;;;;;;2115284;28;20051;-45
2022/10/24 04:02:24;;;;;;;16.00;9.02;;;;;;;;;;2115390;28;20043;-46
2022/10/24 04:03:25;;;;;;;15.03;8.33;;;;;;;;;;2115375;28;20055;-42
2022/10/24 04:04:26;;;;;;;16.98;8.10;;;;;;;;;;2115117;28;20375;-42
2022/10/24 04:05:28;;;;;;;18.40;9.27;;;;;;;;;;2115295;28;20236;-42
2022/10/24 04:06:29;;;;;;;19.48;8.35;;;;;;;;;;2115259;28;20039;-42
2022/10/24 04:07:34;;;;;;;16.05;7.93;;;;;;;;;;2115325;28;20044;-42
2022/10/24 04:08:35;;;;;;;14.82;7.68;;;;;;;;;;2115201;28;20035;-42
2022/10/24 04:09:36;;;;;;;15.48;8.95;;;;;;;;;;2115254;28;20132;-42
2022/10/24 04:10:37;;;;;;;13.73;8.00;;;;;;;;;;2115262;28;20047;-42
2022/10/24 04:11:38;;;;;;;22.93;9.73;;;;;;;;;;2115344;28;20070;-42
2022/10/24 04:12:39;;;;;;;17.73;8.82;;;;;;;;;;2115208;28;20051;-42
2022/10/24 04:13:40;;;;;;;16.67;9.52;;;;;;;;;;2115221;28;20055;-43
2022/10/24 04:14:41;;;;;;;18.08;9.57;;;;;;;;;;2115122;28;20040;-43
2022/10/24 04:15:42;;;;;;;14.70;7.63;;;;;;;;;;2115155;28;20043;-43
2022/10/24 04:16:43;;;;;;;17.20;7.82;;;;;;;;;;2115294;28;20048;-42
2022/10/24 04:17:44;;;;;;;16.53;9.57;;;;;;;;;;2115043;28;20040;-43
2022/10/24 04:18:46;;;;;;;16.42;9.65;;;;;;;;;;2115194;28;20374;-43
2022/10/24 04:19:47;;;;;;;18.50;10.40;;;;;;;;;;2115159;28;20055;-43
2022/10/24 04:20:48;;;;;;;15.88;10.10;;;;;;;;;;2115112;28;20048;-43
2022/10/24 04:21:50;;;;;;;18.65;9.27;;;;;;;;;;2115110;28;20052;-43
2022/10/24 04:22:50;;;;;;;16.80;9.23;;;;;;;;;;2115263;28;20048;-43
2022/10/24 04:23:52;;;;;;;14.90;8.98;;;;;;;;;;2115078;28;20488;-43
2022/10/24 04:24:52;;;;;;;15.57;8.57;;;;;;;;;;2115235;28;20043;-42
2022/10/24 04:25:54;;;;;;;15.90;8.73;;;;;;;;;;2115414;28;20549;-45
2022/10/24 04:26:54;;;;;;;13.48;7.68;;;;;;;;;;2114961;28;20040;-45
2022/10/24 04:27:56;;;;;;;20.13;8.57;;;;;;;;;;2115227;28;20047;-45
2022/10/24 04:28:56;;;;;;;20.30;8.85;;;;;;;;;;2115287;28;20101;-43
2022/10/24 04:29:58;;;;;;;19.37;9.43;;;;;;;;;;2115062;28;20569;-43
2022/10/24 04:30:58;;;;;;;21.25;9.90;;;;;;;;;;2115256;28;20661;-43
2022/10/24 04:32:00;;;;;;;17.83;9.23;;;;;;;;;;2115114;28;20054;-43
2022/10/24 04:33:01;;;;;;;20.90;9.88;;;;;;;;;;2115019;28;20047;-43
2022/10/24 04:34:04;;;;;;;17.57;8.60;;;;;;;;;;2115050;28;20206;-43
2022/10/24 04:35:05;;;;;;;18.48;8.35;;;;;;;;;;2115130;28;20492;-46
2022/10/24 04:36:07;;;;;;;18.52;9.07;;;;;;;;;;2115343;28;20039;-43
2022/10/24 04:37:08;;;;;;;13.50;8.23;;;;;;;;;;2114978;28;20510;-43
2022/10/24 04:38:09;;;;;;;19.37;9.27;;;;;;;;;;2115186;28;20054;-46
2022/10/24 04:39:10;;;;;;;22.45;9.68;;;;;;;;;;2115156;28;20058;-45
2022/10/24 04:40:11;;;;;;;19.50;9.07;;;;;;;;;;2115070;28;20453;-45
2022/10/24 04:41:12;;;;;;;16.30;8.45;;;;;;;;;;2115184;28;20047;-43
2022/10/24 04:42:13;;;;;;;19.13;8.85;;;;;;;;;;2114891;28;20044;-43
2022/10/24 04:43:14;;;;;;;19.55;8.68;;;;;;;;;;2115094;28;20400;-43
2022/10/24 04:44:15;;;;;;;17.75;10.20;;;;;;;;;;2115276;28;20048;-45
2022/10/24 04:45:16;;;;;;;18.08;8.73;;;;;;;;;;2115065;28;20048;-45
2022/10/24 04:46:17;;;;;;;18.57;8.00;;;;;;;;;;2114935;28;20054;-47
2022/10/24 04:47:18;;;;;;;16.40;9.18;;;;;;;;;;2114808;28;20503;-46
2022/10/24 04:48:20;;;;;;;16.70;8.00;;;;;;;;;;2114974;28;20051;-46
2022/10/24 04:49:21;;;;;;;16.42;8.25;;;;;;;;;;2115044;28;20048;-43
2022/10/24 04:50:22;;;;;;;16.90;8.50;;;;;;;;;;2115329;28;20087;-43
2022/10/24 04:51:24;;;;;;;16.35;8.88;;;;;;;;;;2114988;28;20044;-43
2022/10/24 04:52:25;;;;;;;16.20;8.27;;;;;;;;;;2114964;28;20063;-43
2022/10/24 04:53:26;;;;;;;20.77;8.30;;;;;;;;;;2114882;28;20511;-43
2022/10/24 04:54:27;;;;;;;13.23;7.73;;;;;;;;;;2115067;28;20122;-43
2022/10/24 04:55:28;;;;;;;17.92;9.02;;;;;;;;;;2115105;28;20059;-43
2022/10/24 04:56:29;;;;;;;21.63;8.85;;;;;;;;;;2114916;28;20047;-43
2022/10/24 04:57:30;;;;;;;19.30;9.27;;;;;;;;;;2115212;28;20054;-43
2022/10/24 04:58:31;;;;;;;14.15;7.57;;;;;;;;;;2115260;28;20051;-43
2022/10/24 04:59:32;;;;;;;20.23;9.20;;;;;;;;;;2114875;28;20044;-43
2022/10/24 05:00:33;;;;;;;17.90;9.07;;;;;;;;;;2115068;28;20130;-45
2022/10/24 05:01:34;;;;;;;22.88;8.80;;;;;;;;;;2114908;28;20048;-45
2022/10/24 05:02:35;;;;;;;15.93;9.10;;;;;;;;;;2114879;28;20044;-43
2022/10/24 05:03:36;;;;;;;24.88;10.07;;;;;;;;;;2114969;28;20126;-43
2022/10/24 05:04:37;;;;;;;17.33;8.40;;;;;;;;;;2115266;28;20407;-43
2022/10/24 05:05:38;;;;;;;18.17;7.78;;;;;;;;;;2115124;28;20051;-46
2022/10/24 05:06:40;;;;;;;16.50;8.70;;;;;;;;;;2115012;28;20043;-46
2022/10/24 05:07:45;;;;;;;16.10;7.88;;;;;;;;;;2114875;28;20472;-46
2022/10/24 05:08:47;;;;;;;;;;;;;;;;;;2115314;28;20051;-45
2022/10/24 05:09:48;;;;;;;16.65;8.27;;;;;;;;;;2114972;28;20356;-45
2022/10/24 05:10:49;;;;;;;16.67;8.93;;;;;;;;;;2114833;28;20396;-46
2022/10/24 05:11:50;;;;;;;18.02;9.70;;;;;;;;;;2114764;28;20130;-45
2022/10/24 05:12:51;;;;;;;16.42;9.00;;;;;;;;;;2115149;28;20048;-43
2022/10/24 05:13:52;;;;;;;21.02;9.60;;;;;;;;;;2115023;28;20526;-43
2022/10/24 05:14:53;;;;;;;17.60;9.07;;;;;;;;;;2115355;28;20055;-43
2022/10/24 05:15:54;;;;;;;16.83;8.57;;;;;;;;;;2114959;28;20047;-47
2022/10/24 05:16:55;;;;;;;17.33;9.27;;;;;;;;;;2114708;28;20071;-45
2022/10/24 05:17:56;;;;;;;19.20;8.87;;;;;;;;;;2114929;28;20142;-46
2022/10/24 05:18:57;;;;;;;18.88;8.80;;;;;;;;;;2114775;28;20116;-45
2022/10/24 05:19:58;;;;;;;14.90;8.47;;;;;;;;;;2115123;28;20052;-45
2022/10/24 05:20:59;;;;;;;21.52;10.02;;;;;;;;;;2115266;28;20044;-45
2022/10/24 05:22:01;;;;;;;14.70;7.80;;;;;;;;;;2114761;28;20043;-45
2022/10/24 05:23:05;;;;;;;22.38;9.68;;;;;;;;;;2114696;28;20051;-45
2022/10/24 05:24:06;;;;;;;24.58;9.07;;;;;;;;;;2115082;28;20437;-43
2022/10/24 05:25:08;;;;;;;26.30;9.40;;;;;;;;;;2114763;28;20088;-43
2022/10/24 05:26:08;;;;;;;18.60;8.77;;;;;;;;;;2114834;28;20288;-43
2022/10/24 05:27:10;;;;;;;20.35;8.70;;;;;;;;;;2114913;28;20465;-45
2022/10/24 05:28:11;;;;;;;15.85;8.77;;;;;;;;;;2115042;28;20107;-43
2022/10/24 05:29:12;;;;;;;19.50;9.70;;;;;;;;;;2115034;28;20407;-45
2022/10/24 05:30:13;;;;;;;20.87;9.50;;;;;;;;;;2114819;28;20040;-47
2022/10/24 05:31:14;;;;;;;20.05;9.75;;;;;;;;;;2115351;28;20043;-45
2022/10/24 05:32:15;;;;;;;18.37;9.33;;;;;;;;;;2114789;28;20048;-43
2022/10/24 05:33:16;;;;;;;17.10;8.80;;;;;;;;;;2114827;28;20043;-43
2022/10/24 05:34:17;;;;;;;19.67;9.10;;;;;;;;;;2114657;28;20055;-43
2022/10/24 05:35:18;;;;;;;17.63;9.70;;;;;;;;;;2114647;28;20484;-43
2022/10/24 05:36:19;;;;;;;17.30;8.73;;;;;;;;;;2114607;28;20048;-43
2022/10/24 05:37:21;;;;;;;16.40;8.95;;;;;;;;;;2114522;28;20050;-43
2022/10/24 05:38:22;;;;;;;19.20;9.40;;;;;;;;;;2114538;28;20586;-43
2022/10/24 05:39:23;;;;;;;21.52;10.48;;;;;;;;;;2114740;28;20051;-43
2022/10/24 05:40:24;;;;;;;15.47;8.47;;;;;;;;;;2114880;28;20096;-43
2022/10/24 05:41:25;;;;;;;21.10;9.48;;;;;;;;;;2114710;28;20040;-43
2022/10/24 05:42:26;;;;;;;22.17;9.00;;;;;;;;;;2114710;28;20050;-46
2022/10/24 05:43:27;;;;;;;21.15;9.88;;;;;;;;;;2114797;28;20101;-46
2022/10/24 05:44:28;;;;;;;19.73;9.57;;;;;;;;;;2114899;28;20108;-46
2022/10/24 05:45:29;;;;;;;21.50;9.68;;;;;;;;;;2114818;28;20050;-43
2022/10/24 05:46:30;;;;;;;20.17;9.73;;;;;;;;;;2114271;28;20050;-43
2022/10/24 05:47:32;;;;;;;19.38;9.77;;;;;;;;;;2114686;28;20055;-43
2022/10/24 05:48:32;;;;;;;20.20;9.40;;;;;;;;;;2115072;28;20046;-43
2022/10/24 05:49:34;;;;;;;18.20;7.27;;;;;;;;;;2114808;28;20055;-43
2022/10/24 05:50:35;;;;;;;22.77;9.23;;;;;;;;;;2114655;28;20051;-43
2022/10/24 05:51:36;;;;;;;15.63;7.43;;;;;;;;;;2114761;28;20396;-45
2022/10/24 05:52:38;;;;;;;23.55;10.50;;;;;;;;;;2114547;28;20043;-46
2022/10/24 05:53:47;;;;;;;22.77;10.43;;;;;;;;;;2114815;28;20126;-45
2022/10/24 05:54:48;;;;;;;20.83;9.77;;;;;;;;;;2114636;28;20040;-46
2022/10/24 05:56:07;;;;;;;20.65;9.68;;;;;;;;;;2114732;28;20055;-45
2022/10/24 05:57:08;;;;;;;20.85;10.43;;;;;;;;;;2114438;28;20462;-46
2022/10/24 05:58:09;;;;;;;19.93;9.93;;;;;;;;;;2114443;28;20040;-46
2022/10/24 05:59:10;;;;;;;24.02;10.90;;;;;;;;;;2114711;28;20055;-43
2022/10/24 06:00:12;;;;;;;22.47;9.70;;;;;;;;;;2114611;28;20133;-43
2022/10/24 06:01:13;;;;;;;20.15;10.10;;;;;;;;;;2114584;28;20046;-43
2022/10/24 06:02:16;;;;;;;22.30;10.10;;;;;;;;;;2114549;28;20059;-45
2022/10/24 06:03:17;;;;;;;21.80;10.43;;;;;;;;;;2114211;28;20507;-45
2022/10/24 06:04:18;;;;;;;22.00;11.00;;;;;;;;;;2114389;28;20048;-45
2022/10/24 06:05:19;;;;;;;19.95;9.45;;;;;;;;;;2114467;28;20051;-45
2022/10/24 06:06:21;;;;;;;21.45;10.07;;;;;;;;;;2114584;28;20040;-45
2022/10/24 06:07:21;;;;;;;17.73;10.05;;;;;;;;;;2114456;28;20056;-46
2022/10/24 06:08:23;;;;;;;24.10;11.27;;;;;;;;;;2114570;28;20134;-43
2022/10/24 06:09:24;;;;;;;26.35;10.63;;;;;;;;;;2114566;28;20309;-43